East Millsboro, Pennsylvania
Current Conditions -  °F | °C
As of 8:35 PM on Monday 24 Nov 2014 (Local Time) from KAFJ Reporting Station
Clear Clear  
Wind Chill: 52°   Ceiling: Unl
Heat Index: 52°   Visibility: 10mi
Dew Point: 36°   Wind: 17mph
Humidity: 54%   Direction: 260°W
Pressure: 29.77"   Gusts: 25mph
Location:  39.98°N, 79.99°W
Report Text: KAFJ 250135Z 26015G22KT 10SM CLR 11/02 A2977 RMK AO1
Loading
Personal Weather Stations






























Interactive Weather Map New forecast layout! Learn more

10-Day Weather Forecast

Advertisements
Track Severe Weather on mobile